This is the latest recevied weather packets stored in our database for station/object WC4PEM-14. If no packets are shown the sender has not sent any weather packets the latest 1 day(s).
| Time | Temp. | Humidity | Pressure | Rain* | Wind** | Luminosity | Snow |
|---|---|---|---|---|---|---|---|
| 1778026385 | 25.56° C | 59% | 1014.4 hPa | 0 mm | 3.13 m/s, 95° | - | - |
| 1778026239 | 26.11° C | 58% | 1014.3 hPa | 0 mm | 3.13 m/s, 93° | - | - |
| 1778026085 | 25.56° C | 59% | 1014.4 hPa | 0 mm | 2.68 m/s, 101° | - | - |
| 1778025785 | 26.11° C | 58% | 1014.3 hPa | 0 mm | 3.13 m/s, 93° | - | - |
| 1778025485 | 26.11° C | 58% | 1014.3 hPa | 0 mm | 3.58 m/s, 93° | - | - |
| 1778025389 | 26.11° C | 58% | 1014.3 hPa | 0 mm | 4.47 m/s, 96° | - | - |
| 1778025185 | 26.11° C | 58% | 1014.3 hPa | 0 mm | 4.47 m/s, 96° | - | - |
| 1778024885 | 26.11° C | 57% | 1014.2 hPa | 0 mm | 4.47 m/s, 90° | - | - |
| 1778024712 | 26.67° C | 57% | 1014.1 hPa | 0 mm | 4.47 m/s, 93° | - | - |
| 1778024585 | 26.67° C | 57% | 1014.1 hPa | 0 mm | 4.47 m/s, 93° | - | - |
| 1778024285 | 26.67° C | 57% | 1014 hPa | 0 mm | 4.47 m/s, 96° | - | - |
| 1778024238 | 26.67° C | 56% | 1014.1 hPa | 0 mm | 4.47 m/s, 97° | - | - |
| 1778023985 | 26.67° C | 56% | 1014.1 hPa | 0 mm | 4.47 m/s, 97° | - | - |
| 1778023815 | 27.22° C | 56% | 1014 hPa | 0 mm | 4.02 m/s, 92° | - | - |
| 1778023685 | 27.22° C | 56% | 1014 hPa | 0 mm | 4.02 m/s, 92° | - | - |
| 1778023589 | 27.22° C | 56% | 1013.9 hPa | 0 mm | 3.58 m/s, 102° | - | - |
| 1778023385 | 27.22° C | 56% | 1013.9 hPa | 0 mm | 3.58 m/s, 102° | - | - |
| 1778023296 | 27.22° C | 56% | 1014 hPa | 0 mm | 3.58 m/s, 99° | - | - |
| 1778023085 | 27.22° C | 56% | 1014 hPa | 0 mm | 3.58 m/s, 99° | - | - |
| 1778023084 | 27.78° C | 55% | 1014.1 hPa | 0 mm | 4.02 m/s, 105° | - | - |
| 1778022785 | 27.78° C | 55% | 1014.1 hPa | 0 mm | 4.02 m/s, 105° | - | - |
| 1778022485 | 27.78° C | 55% | 1014 hPa | 0 mm | 3.58 m/s, 101° | - | - |
| 1778022358 | 27.78° C | 54% | 1013.9 hPa | 0 mm | 3.13 m/s, 104° | - | - |
| 1778022213 | 28.33° C | 54% | 1014 hPa | 0 mm | 3.13 m/s, 93° | - | - |
| 1778022185 | 27.78° C | 54% | 1013.9 hPa | 0 mm | 3.13 m/s, 104° | - | - |
* Rain latest hour (hover to see other rain measurements)
** Current wind speed in m/s (hover to see current wind gust speed)